Time;durP1;ratioP1;P1;durP2;ratioP2;P2;SDS_P1;SDS_P2;PMS_P1;PMS_P2;Temp;Humidity;BMP_temperature;BMP_pressure;BME280_temperature;BME280_humidity;BME280_pressure;Samples;Min_cycle;Max_cycle;Signal;HPM_P1;HPM_P2
2023/06/17 00:00:14;;;;;;;6.10;4.10;;;13.00;99.90;;;;;;7345071;32;20190;-56
2023/06/17 00:04:16;;;;;;;8.07;4.35;;;13.00;99.90;;;;;;7343603;32;20122;-56
2023/06/17 00:08:18;;;;;;;8.80;4.43;;;12.80;99.90;;;;;;7343642;32;20119;-55
2023/06/17 00:12:21;;;;;;;4.95;4.45;;;12.70;99.90;;;;;;7344603;32;20125;-54
2023/06/17 00:16:23;;;;;;;7.25;4.47;;;12.70;99.90;;;;;;7344921;32;20305;-55
2023/06/17 00:20:25;;;;;;;4.97;3.92;;;12.70;99.90;;;;;;7345468;32;20881;-55
2023/06/17 00:24:26;;;;;;;14.05;4.22;;;12.60;99.90;;;;;;7343625;32;20248;-55
2023/06/17 00:28:28;;;;;;;5.82;4.20;;;12.60;99.90;;;;;;7343114;32;20258;-56
2023/06/17 00:32:30;;;;;;;5.37;3.95;;;12.50;99.90;;;;;;7345560;32;20369;-55
2023/06/17 00:36:32;;;;;;;7.50;4.18;;;12.50;99.90;;;;;;7343077;32;20157;-56
2023/06/17 00:40:34;;;;;;;5.12;4.30;;;12.40;99.90;;;;;;7343426;32;20103;-55
2023/06/17 00:44:36;;;;;;;6.68;4.22;;;12.30;99.90;;;;;;7342953;32;20103;-55
2023/06/17 00:48:37;;;;;;;8.02;4.22;;;12.30;99.90;;;;;;7343469;32;20164;-56
2023/06/17 00:52:40;;;;;;;6.95;4.10;;;12.20;99.90;;;;;;7341002;32;20205;-55
2023/06/17 00:56:44;;;;;;;6.78;4.60;;;12.10;99.90;;;;;;7347623;32;20603;-56
2023/06/17 01:00:46;;;;;;;4.97;4.00;;;12.10;99.90;;;;;;7343967;32;20107;-55
2023/06/17 01:04:48;;;;;;;6.00;4.40;;;12.00;99.90;;;;;;7342862;32;20338;-56
2023/06/17 01:09:01;;;;;;;5.30;4.20;;;11.90;99.90;;;;;;7342235;32;20123;-55
2023/06/17 01:13:05;;;;;;;6.30;4.12;;;11.80;99.90;;;;;;7344916;32;20133;-56
2023/06/17 01:17:17;;;;;;;5.80;4.28;;;11.80;99.90;;;;;;7340765;32;20112;-57
2023/06/17 01:21:22;;;;;;;6.18;4.37;;;11.80;99.90;;;;;;7340216;32;20226;-55
2023/06/17 01:25:29;;;;;;;5.37;4.30;;;11.80;99.90;;;;;;7340401;32;20234;-55
2023/06/17 01:29:32;;;;;;;6.05;4.75;;;11.70;99.90;;;;;;7341189;32;20132;-57
2023/06/17 01:33:36;;;;;;;7.57;4.70;;;11.60;99.90;;;;;;7346071;32;20099;-55
2023/06/17 01:37:45;;;;;;;6.03;4.40;;;11.50;99.90;;;;;;7341437;32;20727;-55
2023/06/17 01:41:52;;;;;;;6.53;4.60;;;11.40;99.90;;;;;;7340445;32;20139;-56
2023/06/17 01:45:55;;;;;;;8.07;4.25;;;11.40;99.90;;;;;;7342220;32;20107;-56
2023/06/17 01:50:02;;;;;;;6.15;4.10;;;11.20;99.90;;;;;;7340234;32;20133;-55
2023/06/17 01:54:04;;;;;;;10.32;4.97;;;11.30;99.90;;;;;;7340413;32;20125;-55
2023/06/17 01:58:06;;;;;;;7.57;4.65;;;11.30;99.90;;;;;;7339728;32;20104;-55
2023/06/17 02:02:08;;;;;;;6.22;4.35;;;11.30;99.90;;;;;;7339029;32;20171;-55
2023/06/17 02:06:10;;;;;;;8.90;4.72;;;11.30;99.90;;;;;;7332494;32;20258;-55
2023/06/17 02:10:12;;;;;;;5.80;4.03;;;11.20;99.90;;;;;;7344752;32;20206;-56
2023/06/17 02:14:14;;;;;;;7.35;4.57;;;11.10;99.90;;;;;;7335521;32;20151;-55
2023/06/17 02:18:16;;;;;;;5.55;4.93;;;11.00;99.90;;;;;;7342861;32;20828;-55
2023/06/17 02:22:17;;;;;;;5.90;4.50;;;11.00;99.90;;;;;;7338006;32;20134;-55
2023/06/17 02:26:19;;;;;;;7.47;4.90;;;11.00;99.90;;;;;;7337426;32;20233;-55
2023/06/17 02:30:21;;;;;;;11.38;4.75;;;10.90;99.90;;;;;;7342142;32;20247;-55
2023/06/17 02:34:23;;;;;;;7.05;5.00;;;10.90;99.90;;;;;;7335978;32;20103;-55
2023/06/17 02:38:26;;;;;;;7.62;4.80;;;10.90;99.90;;;;;;7338629;32;20107;-55
2023/06/17 02:42:28;;;;;;;7.97;4.87;;;10.80;99.90;;;;;;7339509;32;20841;-55
2023/06/17 02:46:30;;;;;;;6.05;4.57;;;10.80;99.90;;;;;;7340795;32;20206;-54
2023/06/17 02:50:32;;;;;;;5.65;4.93;;;10.80;99.90;;;;;;7336590;32;20115;-56
2023/06/17 02:54:34;;;;;;;7.43;5.10;;;10.70;99.90;;;;;;7342375;32;20787;-55
2023/06/17 02:58:36;;;;;;;6.10;5.03;;;10.70;99.90;;;;;;7342856;32;21020;-55
2023/06/17 03:02:38;;;;;;;7.07;4.70;;;10.60;99.90;;;;;;7339942;32;20175;-55
2023/06/17 03:06:41;;;;;;;6.25;4.62;;;10.60;99.90;;;;;;7344743;32;20276;-55
2023/06/17 03:10:43;;;;;;;7.45;4.90;;;10.60;99.90;;;;;;7341516;32;20210;-55
2023/06/17 03:14:47;;;;;;;6.87;5.28;;;10.60;99.90;;;;;;7344670;32;20153;-56
2023/06/17 03:18:49;;;;;;;6.70;4.72;;;10.50;99.90;;;;;;7338776;32;20190;-54
2023/06/17 03:22:52;;;;;;;7.72;4.82;;;10.50;99.90;;;;;;7343427;32;20127;-56
2023/06/17 03:26:54;;;;;;;9.05;5.35;;;10.50;99.90;;;;;;7342777;32;20263;-55
2023/06/17 03:30:56;;;;;;;5.30;4.75;;;10.40;99.90;;;;;;7335162;32;21234;-55
2023/06/17 03:34:57;;;;;;;8.73;5.25;;;10.30;99.90;;;;;;7339533;32;20155;-54
2023/06/17 03:38:59;;;;;;;7.93;5.03;;;10.30;99.90;;;;;;7332276;32;20179;-55
2023/06/17 03:43:01;;;;;;;7.57;4.87;;;10.30;99.90;;;;;;7343585;32;20262;-55
2023/06/17 03:47:03;;;;;;;7.53;4.97;;;10.50;99.90;;;;;;7344563;32;20138;-55
2023/06/17 03:51:05;;;;;;;9.30;4.85;;;10.50;99.90;;;;;;7341190;32;20134;-55
2023/06/17 03:55:07;;;;;;;7.28;5.07;;;10.50;99.90;;;;;;7346968;32;20135;-55
2023/06/17 03:59:10;;;;;;;10.60;5.20;;;10.40;99.90;;;;;;7338713;32;20634;-61
2023/06/17 04:03:12;;;;;;;5.97;4.70;;;10.40;99.90;;;;;;7346562;32;20135;-56
2023/06/17 04:07:14;;;;;;;7.10;5.28;;;10.50;99.90;;;;;;7345914;32;20201;-56
2023/06/17 04:11:16;;;;;;;6.75;5.40;;;10.50;99.90;;;;;;7353481;32;20225;-56
2023/06/17 04:15:18;;;;;;;6.40;4.57;;;10.60;99.90;;;;;;7345746;32;20856;-56
2023/06/17 04:19:20;;;;;;;6.07;5.03;;;10.70;99.90;;;;;;7347092;32;20111;-61
2023/06/17 04:23:24;;;;;;;5.78;4.90;;;10.80;99.90;;;;;;7344320;32;20138;-63
2023/06/17 04:27:25;;;;;;;6.75;4.80;;;10.80;99.90;;;;;;7344471;32;20850;-62
2023/06/17 04:31:27;;;;;;;7.85;4.90;;;11.00;99.90;;;;;;7344930;32;20194;-60
2023/06/17 04:35:29;;;;;;;7.65;4.95;;;11.30;99.90;;;;;;7348029;32;20218;-61
2023/06/17 04:39:34;;;;;;;8.90;5.40;;;11.60;99.90;;;;;;7342754;32;20115;-56
2023/06/17 04:43:36;;;;;;;6.62;5.25;;;11.80;99.90;;;;;;7346982;32;20786;-56
2023/06/17 04:47:39;;;;;;;6.82;5.18;;;12.10;99.90;;;;;;7350337;32;20112;-56
2023/06/17 04:51:41;;;;;;;5.57;4.90;;;12.40;99.90;;;;;;7347683;32;20133;-57
2023/06/17 04:55:43;;;;;;;8.30;5.40;;;12.80;99.90;;;;;;7351537;32;20149;-56
2023/06/17 04:59:45;;;;;;;8.48;4.37;;;13.30;99.90;;;;;;7349730;32;20259;-55
2023/06/17 05:03:46;;;;;;;8.35;4.82;;;13.90;99.90;;;;;;7350645;32;21043;-56
2023/06/17 05:07:48;;;;;;;9.65;4.68;;;14.30;99.90;;;;;;7347820;32;20107;-55
2023/06/17 05:11:50;;;;;;;7.32;4.45;;;14.90;99.90;;;;;;7351327;32;20107;-56
2023/06/17 05:15:52;;;;;;;8.20;4.97;;;15.50;99.90;;;;;;7351768;32;20607;-56
2023/06/17 05:19:53;;;;;;;6.82;4.40;;;16.00;99.90;;;;;;7348656;32;20203;-56
2023/06/17 05:23:56;;;;;;;6.82;5.05;;;16.50;99.90;;;;;;7347979;32;20301;-57
2023/06/17 05:27:57;;;;;;;5.80;4.70;;;17.00;99.90;;;;;;7342996;32;20145;-57
2023/06/17 05:31:59;;;;;;;6.78;4.35;;;17.60;99.90;;;;;;7346376;32;20207;-57
2023/06/17 05:36:01;;;;;;;8.55;4.45;;;18.00;99.90;;;;;;7336579;32;20781;-57
2023/06/17 05:40:04;;;;;;;9.77;4.70;;;18.40;99.90;;;;;;7341053;32;20137;-57
2023/06/17 05:44:05;;;;;;;9.63;4.50;;;18.80;99.90;;;;;;7341233;32;20347;-57
2023/06/17 05:48:07;;;;;;;9.38;4.50;;;19.50;99.90;;;;;;7339138;32;20146;-57
2023/06/17 05:52:10;;;;;;;9.35;4.97;;;19.80;99.90;;;;;;7343655;32;20525;-57
2023/06/17 05:56:12;;;;;;;8.20;5.57;;;20.20;99.90;;;;;;7344256;32;20330;-57
2023/06/17 06:00:15;;;;;;;7.85;5.03;;;20.70;99.90;;;;;;7347738;32;20106;-58
2023/06/17 06:04:16;;;;;;;7.28;4.70;;;21.00;99.90;;;;;;7343578;32;20134;-57
2023/06/17 06:08:19;;;;;;;8.52;5.80;;;21.20;99.90;;;;;;7347345;32;20300;-57
2023/06/17 06:12:20;;;;;;;7.12;4.55;;;21.50;99.90;;;;;;7341965;32;20694;-57
2023/06/17 06:16:22;;;;;;;7.37;5.03;;;21.90;99.90;;;;;;7345802;32;20463;-58
2023/06/17 06:20:24;;;;;;;8.68;5.05;;;22.60;99.90;;;;;;7347715;32;20125;-58
2023/06/17 06:24:25;;;;;;;8.95;5.53;;;22.80;99.90;;;;;;7345691;32;20202;-57
2023/06/17 06:28:27;;;;;;;8.48;5.40;;;23.30;99.90;;;;;;7347248;32;20130;-58
2023/06/17 06:32:29;;;;;;;8.77;5.97;;;23.70;99.90;;;;;;7346831;32;20189;-57
2023/06/17 06:36:31;;;;;;;17.15;11.45;;;24.00;99.90;;;;;;7345303;32;20201;-57
2023/06/17 06:40:33;;;;;;;15.70;10.20;;;24.30;99.90;;;;;;7346309;32;20561;-58
2023/06/17 06:44:34;;;;;;;22.23;15.82;;;24.60;99.90;;;;;;7347193;32;20121;-58
2023/06/17 06:48:36;;;;;;;18.58;14.32;;;24.30;99.90;;;;;;7347684;32;20171;-58
2023/06/17 06:52:38;;;;;;;23.95;15.65;;;23.40;99.90;;;;;;7348309;32;20743;-59
2023/06/17 06:56:39;;;;;;;18.27;14.15;;;22.80;99.90;;;;;;7348944;32;20172;-58
2023/06/17 07:00:41;;;;;;;21.25;12.10;;;22.30;99.90;;;;;;7346102;32;20244;-59
2023/06/17 07:04:43;;;;;;;14.18;10.80;;;21.80;99.90;;;;;;7346078;32;20174;-59
2023/06/17 07:08:45;;;;;;;16.95;10.73;;;21.40;99.90;;;;;;7345934;32;20126;-58
2023/06/17 07:12:47;;;;;;;16.92;10.43;;;21.50;99.90;;;;;;7345579;32;20152;-58
2023/06/17 07:16:48;;;;;;;15.52;10.20;;;21.20;99.90;;;;;;7344990;32;20180;-58
2023/06/17 07:20:50;;;;;;;13.40;9.80;;;21.30;99.90;;;;;;7349422;32;20205;-59
2023/06/17 07:24:52;;;;;;;14.73;8.18;;;21.20;99.90;;;;;;7353846;32;20549;-59
2023/06/17 07:28:54;;;;;;;14.63;8.27;;;21.40;99.90;;;;;;7353339;32;20561;-58
2023/06/17 07:32:56;;;;;;;10.68;6.30;;;21.30;99.90;;;;;;7348187;32;20119;-59
2023/06/17 07:36:57;;;;;;;9.93;5.28;;;21.20;99.90;;;;;;7351094;32;20197;-60
2023/06/17 07:41:00;;;;;;;12.32;5.82;;;21.30;99.90;;;;;;7352365;32;20111;-59
2023/06/17 07:45:02;;;;;;;11.57;5.50;;;21.30;99.90;;;;;;7351740;32;20167;-59
2023/06/17 07:49:03;;;;;;;13.60;5.68;;;21.30;99.90;;;;;;7350707;32;20241;-58
2023/06/17 07:53:05;;;;;;;14.20;6.40;;;21.40;99.90;;;;;;7349486;32;20250;-58
2023/06/17 07:57:07;;;;;;;13.45;5.35;;;21.50;99.90;;;;;;7347928;32;20248;-58
2023/06/17 08:01:09;;;;;;;11.60;5.53;;;21.40;99.90;;;;;;7346669;32;20193;-59
2023/06/17 08:05:10;;;;;;;7.62;4.85;;;21.70;99.90;;;;;;7342875;32;20221;-59
2023/06/17 08:09:12;;;;;;;10.63;5.72;;;22.00;99.90;;;;;;7347360;32;20261;-58
2023/06/17 08:13:14;;;;;;;12.98;6.00;;;22.20;96.80;;;;;;7344485;32;20713;-59
2023/06/17 08:17:16;;;;;;;8.98;5.65;;;22.40;97.00;;;;;;7351875;32;20220;-58
2023/06/17 08:21:18;;;;;;;10.70;7.60;;;22.70;98.30;;;;;;7345891;32;20146;-58
2023/06/17 08:25:20;;;;;;;12.13;6.37;;;22.70;95.50;;;;;;7346119;32;20670;-57
2023/06/17 08:29:22;;;;;;;11.38;6.05;;;22.90;96.90;;;;;;7348990;32;20123;-59
2023/06/17 08:33:25;;;;;;;13.20;6.05;;;23.40;93.70;;;;;;7348655;32;20743;-59
2023/06/17 08:37:26;;;;;;;10.95;5.30;;;23.80;93.10;;;;;;7351914;32;20211;-56
2023/06/17 08:41:29;;;;;;;10.55;4.90;;;24.10;89.40;;;;;;7352765;32;20103;-56
2023/06/17 08:45:30;;;;;;;9.68;5.55;;;24.40;90.10;;;;;;7343878;32;20107;-58
2023/06/17 08:49:33;;;;;;;9.43;5.07;;;24.50;84.50;;;;;;7344895;32;20651;-58
2023/06/17 08:53:36;;;;;;;6.10;4.72;;;24.70;81.10;;;;;;7348649;32;20215;-58
2023/06/17 08:57:38;;;;;;;9.90;4.68;;;25.10;87.50;;;;;;7349644;32;20135;-58
2023/06/17 09:01:41;;;;;;;7.07;4.10;;;25.60;88.00;;;;;;7344815;32;20239;-58
2023/06/17 09:05:43;;;;;;;9.02;4.78;;;26.10;81.20;;;;;;7346122;32;20104;-60
2023/06/17 09:09:48;;;;;;;10.35;4.90;;;26.20;78.50;;;;;;7346335;32;20198;-57
2023/06/17 09:13:53;;;;;;;7.37;4.47;;;26.80;80.00;;;;;;7349325;32;20156;-57
2023/06/17 09:17:58;;;;;;;10.55;5.32;;;26.90;80.20;;;;;;7346014;32;20174;-57
2023/06/17 09:22:06;;;;;;;9.30;5.28;;;27.00;71.50;;;;;;7348001;32;20130;-57
2023/06/17 09:26:08;;;;;;;12.37;5.30;;;27.50;71.90;;;;;;7345062;32;20662;-57
2023/06/17 09:30:10;;;;;;;10.30;4.62;;;27.60;73.40;;;;;;7345612;32;20119;-57
2023/06/17 09:34:14;;;;;;;10.18;4.97;;;27.90;74.40;;;;;;7348512;32;20703;-57
2023/06/17 09:38:20;;;;;;;10.18;5.03;;;27.90;66.00;;;;;;7349176;32;20287;-57
2023/06/17 09:42:22;;;;;;;14.07;5.30;;;28.20;71.90;;;;;;7348443;32;20181;-57
2023/06/17 09:46:29;;;;;;;7.03;4.05;;;28.40;67.60;;;;;;7338407;32;20245;-57
2023/06/17 09:50:32;;;;;;;8.00;4.35;;;28.20;67.00;;;;;;7339726;32;20492;-57
2023/06/17 09:54:36;;;;;;;10.30;4.87;;;28.60;63.50;;;;;;7346138;32;20111;-57
2023/06/17 09:58:40;;;;;;;9.48;5.25;;;28.90;64.70;;;;;;7350503;32;20135;-57
2023/06/17 10:02:45;;;;;;;9.68;5.20;;;29.40;63.80;;;;;;7340356;32;20119;-58
2023/06/17 10:06:50;;;;;;;11.57;4.10;;;29.60;67.50;;;;;;7349072;32;20235;-57
2023/06/17 10:10:52;;;;;;;11.32;4.75;;;29.50;60.70;;;;;;7346880;32;20584;-57
2023/06/17 10:14:54;;;;;;;10.70;4.55;;;29.40;61.20;;;;;;7344721;32;20108;-57
2023/06/17 10:19:00;;;;;;;8.20;4.60;;;29.10;62.10;;;;;;7344157;32;20146;-57
2023/06/17 10:23:03;;;;;;;11.12;4.75;;;28.70;59.40;;;;;;7348334;32;20557;-57
2023/06/17 10:27:08;;;;;;;6.85;4.20;;;29.20;64.20;;;;;;7336190;32;20115;-57
2023/06/17 10:31:30;;;;;;;4.85;3.70;;;29.10;58.40;;;;;;7339986;32;20196;-57
2023/06/17 10:35:36;;;;;;;4.70;3.40;;;28.90;56.10;;;;;;7345342;32;20206;-57
2023/06/17 10:39:51;;;;;;;5.53;3.27;;;28.90;57.70;;;;;;7344520;32;20902;-57
2023/06/17 10:43:53;;;;;;;7.07;3.80;;;29.50;58.00;;;;;;7345103;32;20158;-57
2023/06/17 10:48:27;;;;;;;5.93;4.00;;;29.10;55.50;;;;;;7342761;32;20186;-57
2023/06/17 10:52:30;;;;;;;6.62;3.37;;;28.50;55.20;;;;;;7339136;32;20640;-57
2023/06/17 10:56:32;;;;;;;6.78;3.30;;;29.00;56.80;;;;;;7343746;32;20286;-57
2023/06/17 11:00:34;;;;;;;6.25;3.40;;;29.20;55.10;;;;;;7347995;32;20299;-57
2023/06/17 11:04:40;;;;;;;5.10;3.42;;;29.00;54.40;;;;;;7348242;32;20129;-57
2023/06/17 11:08:42;;;;;;;6.62;4.43;;;28.70;53.00;;;;;;7343638;32;20107;-58
2023/06/17 11:12:47;;;;;;;6.05;3.65;;;28.80;53.60;;;;;;7343333;32;20099;-57
2023/06/17 11:16:51;;;;;;;6.05;3.67;;;28.70;54.20;;;;;;7344206;32;20136;-58
2023/06/17 11:20:53;;;;;;;3.97;3.20;;;28.90;54.80;;;;;;7343845;32;20103;-58
2023/06/17 11:24:57;;;;;;;7.37;3.70;;;29.10;53.40;;;;;;7345218;32;20130;-58
2023/06/17 11:29:00;;;;;;;8.55;3.83;;;28.80;55.00;;;;;;7345982;32;20115;-57
2023/06/17 11:33:02;;;;;;;7.12;3.90;;;29.10;54.50;;;;;;7345575;32;20123;-58
2023/06/17 11:37:09;;;;;;;9.00;3.45;;;29.30;52.00;;;;;;7343508;32;20199;-58
2023/06/17 11:41:11;;;;;;;5.53;3.50;;;29.40;55.20;;;;;;7346960;32;20289;-57
2023/06/17 11:45:13;;;;;;;7.78;3.28;;;29.70;54.60;;;;;;7351505;32;20115;-58
2023/06/17 11:49:15;;;;;;;7.47;3.45;;;30.10;55.50;;;;;;7347379;32;20133;-58
2023/06/17 11:53:39;;;;;;;6.37;3.40;;;30.30;52.50;;;;;;7344101;32;20214;-59
2023/06/17 11:57:42;;;;;;;3.87;3.42;;;30.20;52.30;;;;;;7347047;32;20194;-59
2023/06/17 12:01:44;;;;;;;5.00;3.53;;;30.00;52.40;;;;;;7347884;32;20103;-58
2023/06/17 12:05:46;;;;;;;8.30;3.60;;;30.20;50.30;;;;;;7343663;32;20111;-58
2023/06/17 12:09:53;;;;;;;5.95;3.35;;;30.00;52.50;;;;;;7346269;32;20131;-58
2023/06/17 12:13:57;;;;;;;8.32;3.75;;;30.20;50.40;;;;;;7352259;32;20220;-58
2023/06/17 12:18:09;;;;;;;5.72;3.42;;;31.00;50.50;;;;;;7352499;32;20584;-59
2023/06/17 12:22:12;;;;;;;5.55;3.42;;;31.20;49.50;;;;;;7346117;32;20263;-59
2023/06/17 12:26:15;;;;;;;4.62;3.53;;;31.90;49.50;;;;;;7349575;32;20624;-58
2023/06/17 12:30:17;;;;;;;5.37;3.45;;;31.60;48.90;;;;;;7346344;32;20130;-58
2023/06/17 12:34:19;;;;;;;5.97;3.80;;;31.80;46.80;;;;;;7350950;32;20111;-58
2023/06/17 12:38:28;;;;;;;4.35;3.70;;;31.90;47.20;;;;;;7354030;32;20179;-57
2023/06/17 12:42:30;;;;;;;4.57;3.42;;;31.70;48.90;;;;;;7341812;32;20199;-58
2023/06/17 12:46:35;;;;;;;5.85;4.05;;;32.70;46.40;;;;;;7335733;32;20222;-58
2023/06/17 12:50:37;;;;;;;10.27;3.60;;;32.40;44.40;;;;;;7342553;32;20114;-58
2023/06/17 12:54:42;;;;;;;3.67;3.22;;;32.00;44.20;;;;;;7337222;32;20212;-58
2023/06/17 12:58:44;;;;;;;6.37;3.50;;;32.00;44.50;;;;;;7336409;32;20532;-59
2023/06/17 13:02:46;;;;;;;4.62;3.70;;;32.10;44.80;;;;;;7341599;32;20728;-58
2023/06/17 13:06:48;;;;;;;5.95;3.85;;;32.00;45.10;;;;;;7338386;32;20210;-57
2023/06/17 13:10:50;;;;;;;22.35;16.12;;;32.90;44.50;;;;;;7338873;32;20186;-58
2023/06/17 13:14:52;;;;;;;4.28;3.40;;;33.20;43.80;;;;;;7340239;32;20226;-59
2023/06/17 13:18:55;;;;;;;5.12;2.92;;;33.40;42.50;;;;;;7342743;32;20210;-58
2023/06/17 13:22:59;;;;;;;5.53;3.50;;;33.30;44.60;;;;;;7339900;32;20591;-58
2023/06/17 13:27:01;;;;;;;6.72;3.30;;;32.70;45.30;;;;;;7340759;32;20224;-57
2023/06/17 13:31:03;;;;;;;4.25;3.80;;;32.50;47.30;;;;;;7344103;32;20493;-59
2023/06/17 13:35:05;;;;;;;4.53;3.42;;;31.70;46.20;;;;;;7337765;32;20162;-58
2023/06/17 13:39:07;;;;;;;4.68;3.70;;;31.80;46.50;;;;;;7337381;32;20198;-58
2023/06/17 13:43:08;;;;;;;5.28;4.05;;;31.80;47.30;;;;;;7343366;32;20166;-57
2023/06/17 13:47:10;;;;;;;4.37;3.70;;;31.70;45.80;;;;;;7339517;32;20191;-57
2023/06/17 13:51:12;;;;;;;5.32;3.33;;;31.10;43.10;;;;;;7340256;32;20228;-56
2023/06/17 13:55:14;;;;;;;6.80;3.55;;;30.90;48.00;;;;;;7338534;32;20533;-56
2023/06/17 13:59:16;;;;;;;4.07;3.47;;;31.20;45.20;;;;;;7348224;32;20103;-55
2023/06/17 14:03:18;;;;;;;6.20;3.87;;;30.80;45.10;;;;;;7345669;32;20215;-56
2023/06/17 14:07:21;;;;;;;8.23;4.35;;;31.00;45.30;;;;;;7344195;32;20195;-56
2023/06/17 14:11:23;;;;;;;5.80;3.62;;;31.10;46.50;;;;;;7344609;32;20189;-55
2023/06/17 14:15:25;;;;;;;5.72;3.95;;;31.30;47.90;;;;;;7345979;32;20123;-56
2023/06/17 14:19:28;;;;;;;5.40;4.00;;;31.60;45.50;;;;;;7348740;32;20188;-56
2023/06/17 14:23:29;;;;;;;10.82;4.28;;;31.80;43.50;;;;;;7346745;32;20337;-58
2023/06/17 14:27:42;;;;;;;4.75;3.62;;;31.60;42.70;;;;;;7349441;32;20200;-58
2023/06/17 14:31:43;;;;;;;5.43;4.03;;;31.70;43.90;;;;;;7344934;32;20272;-57
2023/06/17 14:35:45;;;;;;;6.68;3.90;;;30.90;43.20;;;;;;7347858;32;20135;-58
2023/06/17 14:39:47;;;;;;;6.32;4.35;;;30.90;46.20;;;;;;7344546;32;20119;-58
2023/06/17 14:43:49;;;;;;;5.68;4.18;;;31.00;44.30;;;;;;7346426;32;20167;-58
2023/06/17 14:47:50;;;;;;;9.25;4.62;;;31.30;43.90;;;;;;7345258;32;20823;-58
2023/06/17 14:51:52;;;;;;;5.05;4.32;;;31.20;45.50;;;;;;7346176;32;20225;-57
2023/06/17 14:56:27;;;;;;;5.60;4.40;;;31.50;44.30;;;;;;7342835;32;20282;-58
2023/06/17 15:00:29;;;;;;;5.62;4.35;;;31.80;43.20;;;;;;7330312;32;21990;-57
2023/06/17 15:04:31;;;;;;;6.35;3.90;;;31.50;43.00;;;;;;7348691;32;20103;-58
2023/06/17 15:08:33;;;;;;;9.27;4.10;;;32.20;44.20;;;;;;7340364;32;20129;-59
2023/06/17 15:12:37;;;;;;;6.00;4.03;;;32.20;41.80;;;;;;7338967;32;20226;-59
2023/06/17 15:16:38;;;;;;;6.93;4.10;;;32.10;40.70;;;;;;7341711;32;20360;-58
2023/06/17 15:20:40;;;;;;;18.15;4.97;;;31.90;42.30;;;;;;7344802;32;20150;-58
2023/06/17 15:24:42;;;;;;;5.37;3.70;;;31.60;43.10;;;;;;7334120;32;20348;-59
2023/06/17 15:28:44;;;;;;;10.55;5.00;;;30.70;42.60;;;;;;7338960;32;20217;-58
2023/06/17 15:32:46;;;;;;;20.12;5.65;;;29.80;46.20;;;;;;7335795;32;20562;-59
2023/06/17 15:36:48;;;;;;;7.47;4.35;;;29.70;45.20;;;;;;7332063;32;20126;-58
2023/06/17 15:40:49;;;;;;;4.87;4.10;;;29.50;47.00;;;;;;7338558;32;20146;-58
2023/06/17 15:44:51;;;;;;;8.82;4.30;;;29.20;48.10;;;;;;7343261;32;20255;-58
2023/06/17 15:48:53;;;;;;;6.12;4.37;;;29.00;48.30;;;;;;7344764;32;20197;-58
2023/06/17 15:52:55;;;;;;;5.00;3.83;;;28.70;45.20;;;;;;7344387;32;20182;-58
2023/06/17 15:56:57;;;;;;;6.37;4.10;;;28.40;47.00;;;;;;7352168;32;20201;-58
2023/06/17 16:01:00;;;;;;;5.20;4.55;;;28.20;46.00;;;;;;7348409;32;20134;-57
2023/06/17 16:05:02;;;;;;;8.38;4.43;;;28.00;46.30;;;;;;7338887;32;20125;-59
2023/06/17 16:09:03;;;;;;;6.57;4.20;;;27.90;48.90;;;;;;7339974;32;20151;-58
2023/06/17 16:13:05;;;;;;;7.70;4.32;;;27.80;48.40;;;;;;7338512;32;20470;-58
2023/06/17 16:17:09;;;;;;;5.72;4.20;;;27.80;48.90;;;;;;7335336;32;20182;-57
2023/06/17 16:21:11;;;;;;;8.85;4.20;;;27.70;48.20;;;;;;7343109;32;20138;-58
2023/06/17 16:25:13;;;;;;;5.68;4.75;;;27.70;49.90;;;;;;7343983;32;20344;-59
2023/06/17 16:29:15;;;;;;;11.95;4.45;;;27.60;51.60;;;;;;7337980;32;20174;-58
2023/06/17 16:33:16;;;;;;;9.27;4.62;;;27.40;50.50;;;;;;7340495;32;20111;-57
2023/06/17 16:37:18;;;;;;;9.90;4.65;;;27.40;49.60;;;;;;7339301;32;20283;-57
2023/06/17 16:41:20;;;;;;;8.65;4.90;;;27.10;49.60;;;;;;7346342;32;20486;-58
2023/06/17 16:45:22;;;;;;;5.00;4.50;;;27.30;48.80;;;;;;7343521;32;20199;-57
2023/06/17 16:49:24;;;;;;;6.53;4.28;;;27.30;49.90;;;;;;7345101;32;20111;-58
2023/06/17 16:53:25;;;;;;;9.00;4.10;;;27.20;49.60;;;;;;7342766;32;20117;-56
2023/06/17 16:57:27;;;;;;;5.72;3.85;;;27.20;50.40;;;;;;7344933;32;20166;-58
2023/06/17 17:01:30;;;;;;;8.55;4.25;;;27.00;49.50;;;;;;7341442;32;21989;-57
2023/06/17 17:05:32;;;;;;;6.37;5.07;;;27.00;50.50;;;;;;7343162;32;21485;-57
2023/06/17 17:09:34;;;;;;;5.28;4.30;;;26.80;50.30;;;;;;7343906;32;20483;-58
2023/06/17 17:13:35;;;;;;;7.12;4.12;;;26.80;50.10;;;;;;7346964;32;20249;-57
2023/06/17 17:17:48;;;;;;;7.22;3.87;;;26.60;50.10;;;;;;7345150;32;20116;-57
2023/06/17 17:21:51;;;;;;;6.75;4.05;;;26.40;51.00;;;;;;7344561;32;20213;-57
2023/06/17 17:25:53;;;;;;;5.03;4.10;;;26.40;49.00;;;;;;7343430;32;20265;-58
2023/06/17 17:29:54;;;;;;;5.93;3.90;;;26.40;53.00;;;;;;7339444;32;20207;-58
2023/06/17 17:33:56;;;;;;;5.68;3.95;;;26.20;52.60;;;;;;7343268;32;20129;-58
2023/06/17 17:37:58;;;;;;;6.62;3.83;;;26.10;53.20;;;;;;7342622;32;20155;-57
2023/06/17 17:42:00;;;;;;;7.37;3.90;;;26.20;51.50;;;;;;7342875;32;20346;-58
2023/06/17 17:46:04;;;;;;;6.47;3.80;;;26.00;51.70;;;;;;7343826;32;20131;-58
2023/06/17 17:50:06;;;;;;;7.37;4.65;;;25.90;51.60;;;;;;7337165;32;20115;-57
2023/06/17 17:54:08;;;;;;;4.75;3.97;;;25.70;52.60;;;;;;7340516;32;20131;-57
2023/06/17 17:58:10;;;;;;;4.07;3.70;;;25.70;53.40;;;;;;7340641;32;20125;-57
2023/06/17 18:02:11;;;;;;;5.60;4.28;;;25.50;54.40;;;;;;7337366;32;20495;-57
2023/06/17 18:06:13;;;;;;;5.40;3.75;;;25.30;55.10;;;;;;7341750;32;20250;-57
2023/06/17 18:10:15;;;;;;;5.30;4.03;;;25.10;57.50;;;;;;7337712;32;20099;-57
2023/06/17 18:14:17;;;;;;;4.97;4.12;;;25.10;61.90;;;;;;7343696;32;20313;-57
2023/06/17 18:18:19;;;;;;;5.62;3.95;;;25.00;63.20;;;;;;7331504;32;20240;-57
2023/06/17 18:22:21;;;;;;;5.30;3.80;;;24.80;63.80;;;;;;7334449;32;20108;-57
2023/06/17 18:26:24;;;;;;;7.90;3.95;;;24.60;66.10;;;;;;7340782;32;20693;-58
2023/06/17 18:30:28;;;;;;;4.37;3.62;;;24.50;70.90;;;;;;7347750;32;20211;-57
2023/06/17 18:34:29;;;;;;;7.45;4.25;;;24.40;73.60;;;;;;7350632;32;20116;-57
2023/06/17 18:38:31;;;;;;;6.95;3.83;;;24.20;76.30;;;;;;7349876;32;20108;-57
2023/06/17 18:42:33;;;;;;;10.95;4.07;;;23.80;79.50;;;;;;7350680;32;20243;-58
2023/06/17 18:46:35;;;;;;;7.82;4.50;;;23.70;83.10;;;;;;7351972;32;20196;-57
2023/06/17 18:50:37;;;;;;;9.27;4.60;;;23.40;86.70;;;;;;7352918;32;20186;-57
2023/06/17 18:54:39;;;;;;;14.35;5.10;;;23.00;90.00;;;;;;7346680;32;20539;-57
2023/06/17 18:58:41;;;;;;;17.98;5.62;;;22.60;93.00;;;;;;7348755;32;20271;-57
2023/06/17 19:02:43;;;;;;;7.53;4.95;;;22.60;94.60;;;;;;7337954;32;20694;-57
2023/06/17 19:06:44;;;;;;;9.07;5.15;;;22.20;96.50;;;;;;7341037;32;20125;-57
2023/06/17 19:10:51;;;;;;;13.48;5.60;;;22.00;98.90;;;;;;7346635;32;20729;-57
2023/06/17 19:14:53;;;;;;;13.68;4.90;;;21.80;99.90;;;;;;7351078;32;20206;-57
2023/06/17 19:18:56;;;;;;;11.65;6.18;;;21.50;99.90;;;;;;7350858;32;20107;-57
2023/06/17 19:22:57;;;;;;;11.90;5.15;;;21.40;99.90;;;;;;7348969;32;20485;-57
2023/06/17 19:26:59;;;;;;;10.93;5.60;;;21.00;99.90;;;;;;7350587;32;20844;-58
2023/06/17 19:31:01;;;;;;;8.90;5.55;;;20.70;99.90;;;;;;7354908;32;20156;-58
2023/06/17 19:35:04;;;;;;;10.30;5.90;;;20.50;99.90;;;;;;7350394;32;20754;-57
2023/06/17 19:39:05;;;;;;;7.85;5.60;;;20.20;99.90;;;;;;7350747;32;20437;-57
2023/06/17 19:43:07;;;;;;;12.32;5.70;;;19.90;99.90;;;;;;7349239;32;20130;-57
2023/06/17 19:47:10;;;;;;;10.73;5.97;;;19.70;99.90;;;;;;7348265;32;20735;-56
2023/06/17 19:51:12;;;;;;;13.55;5.90;;;19.50;99.90;;;;;;7351602;32;20119;-57
2023/06/17 19:55:14;;;;;;;8.30;5.95;;;19.30;99.90;;;;;;7349469;32;20902;-57
2023/06/17 19:59:17;;;;;;;10.52;6.40;;;19.10;99.90;;;;;;7341861;32;20107;-56
2023/06/17 20:03:18;;;;;;;12.15;7.07;;;19.00;99.90;;;;;;7348971;32;20192;-56
2023/06/17 20:07:20;;;;;;;10.57;6.40;;;18.70;99.90;;;;;;7343427;32;20154;-55
2023/06/17 20:11:25;;;;;;;17.02;7.03;;;18.50;99.90;;;;;;7339368;32;20212;-57
2023/06/17 20:15:29;;;;;;;13.00;6.28;;;18.40;99.90;;;;;;7344850;32;20279;-57
2023/06/17 20:19:31;;;;;;;9.98;6.62;;;18.50;99.90;;;;;;7348864;32;20275;-56
2023/06/17 20:23:32;;;;;;;10.30;7.03;;;18.20;99.90;;;;;;7349476;32;20544;-57
2023/06/17 20:27:34;;;;;;;9.73;6.62;;;17.90;99.90;;;;;;7345195;32;20198;-56
2023/06/17 20:31:36;;;;;;;11.35;6.60;;;17.80;99.90;;;;;;7344354;32;20755;-56
2023/06/17 20:35:37;;;;;;;10.80;6.90;;;17.60;99.90;;;;;;7344888;32;20279;-56
2023/06/17 20:39:39;;;;;;;10.52;6.72;;;17.40;99.90;;;;;;7346025;32;20171;-56
2023/06/17 20:43:41;;;;;;;10.00;6.72;;;17.20;99.90;;;;;;7344419;32;20104;-57
2023/06/17 20:47:43;;;;;;;10.75;6.15;;;17.10;99.90;;;;;;7348444;32;20142;-57
2023/06/17 20:51:45;;;;;;;10.98;6.53;;;16.90;99.90;;;;;;7344445;32;20129;-57
2023/06/17 20:55:46;;;;;;;7.12;5.82;;;16.80;99.90;;;;;;7337787;32;20131;-57